Time;durP1;ratioP1;P1;durP2;ratioP2;P2;SDS_P1;SDS_P2;PMS_P1;PMS_P2;Temp;Humidity;BMP_temperature;BMP_pressure;BME280_temperature;BME280_humidity;BME280_pressure;Samples;Min_cycle;Max_cycle;Signal;HPM_P1;HPM_P2
2022/11/13 14:00:10;;;;;;;8.20;6.13;;;13.40;99.90;;;;;;6157014;22;1295253;-60
2022/11/13 14:02:44;;;;;;;9.80;7.78;;;13.30;99.90;;;;;;6295821;22;20060;-60
2022/11/13 14:05:28;;;;;;;9.18;7.13;;;13.20;99.90;;;;;;6205255;22;20430;-61
2022/11/13 14:07:54;;;;;;;14.07;7.78;;;13.10;99.90;;;;;;6284040;22;20027;-60
2022/11/13 14:10:23;;;;;;;10.07;7.60;;;12.80;99.90;;;;;;6142799;23;20024;-60
2022/11/13 14:12:50;;;;;;;9.35;6.90;;;12.80;99.90;;;;;;6168106;23;20032;-61
2022/11/13 14:15:30;;;;;;;9.77;7.82;;;12.60;99.90;;;;;;6168752;22;20025;-60
2022/11/13 14:18:12;;;;;;;10.30;7.53;;;12.60;99.90;;;;;;6168295;22;20028;-67
2022/11/13 14:23:09;;;;;;;12.38;7.68;;;12.50;99.90;;;;;;6167841;23;20036;-61
2022/11/13 14:25:35;;;;;;;11.05;7.75;;;12.40;99.90;;;;;;6168067;23;20142;-63
2022/11/13 14:28:01;;;;;;;12.20;6.97;;;12.30;99.90;;;;;;6168811;22;20108;-61
2022/11/13 14:30:29;;;;;;;8.13;7.20;;;12.20;99.90;;;;;;6168310;23;20029;-64
2022/11/13 14:32:56;;;;;;;10.40;7.88;;;12.30;99.90;;;;;;6168368;22;20442;-64
2022/11/13 14:35:25;;;;;;;8.70;6.90;;;13.30;99.90;;;;;;6167496;22;20036;-61
2022/11/13 14:37:52;;;;;;;8.35;6.78;;;12.20;99.90;;;;;;6271894;22;20536;-60
2022/11/13 14:40:18;;;;;;;10.57;7.82;;;12.20;99.90;;;;;;6169329;22;20363;-61
2022/11/13 14:42:50;;;;;;;10.30;7.95;;;12.20;99.90;;;;;;6169264;22;20455;-60
2022/11/13 14:45:22;;;;;;;10.75;8.10;;;12.10;99.90;;;;;;6166440;22;20036;-63
2022/11/13 14:48:16;;;;;;;11.88;7.88;;;12.00;99.90;;;;;;6168343;23;20039;-60
2022/11/13 14:53:11;;;;;;;10.50;7.60;;;12.00;99.90;;;;;;6178303;22;20032;-59
2022/11/13 14:58:10;;;;;;;9.40;7.38;;;11.90;99.90;;;;;;6165551;22;20036;-60
2022/11/13 15:00:37;;;;;;;10.00;7.53;;;11.80;99.90;;;;;;6143124;22;20026;-60
2022/11/13 15:03:05;;;;;;;9.10;7.72;;;11.70;99.90;;;;;;6136107;23;20034;-60
2022/11/13 15:05:31;;;;;;;11.70;8.20;;;11.70;99.90;;;;;;6240651;22;20419;-60
2022/11/13 15:07:58;;;;;;;11.20;7.57;;;11.60;99.90;;;;;;6240334;22;20071;-60
2022/11/13 15:10:27;;;;;;;8.38;6.45;;;11.40;99.90;;;;;;6137944;23;20022;-60
2022/11/13 15:12:53;;;;;;;10.02;7.18;;;11.30;99.90;;;;;;6137706;22;20033;-61
2022/11/13 15:15:26;;;;;;;8.15;7.30;;;11.20;99.90;;;;;;6137796;23;20022;-63
2022/11/13 15:17:53;;;;;;;9.10;7.37;;;11.10;99.90;;;;;;6136898;23;20022;-64
2022/11/13 15:20:25;;;;;;;12.23;7.63;;;11.00;99.90;;;;;;6136669;23;20326;-62
2022/11/13 15:22:51;;;;;;;9.82;8.18;;;10.80;99.90;;;;;;6137450;22;20039;-63
2022/11/13 15:25:19;;;;;;;9.35;8.05;;;10.70;99.90;;;;;;6137461;23;20034;-62
2022/11/13 15:27:45;;;;;;;9.35;7.72;;;10.60;99.90;;;;;;6136797;23;20451;-63
2022/11/13 15:30:11;;;;;;;12.32;8.80;;;10.50;99.90;;;;;;6137451;23;20063;-59
2022/11/13 15:32:37;;;;;;;12.35;8.98;;;10.30;99.90;;;;;;6137446;23;20055;-60
2022/11/13 15:35:12;;;;;;;12.15;8.95;;;10.30;99.90;;;;;;6135065;23;20048;-60
2022/11/13 15:37:37;;;;;;;;;;;10.10;99.90;;;;;;6138417;23;20082;-60
2022/11/13 15:40:03;;;;;;;14.35;8.55;;;9.90;99.90;;;;;;6136773;22;19920;-60
2022/11/13 15:42:33;;;;;;;11.32;7.97;;;9.90;99.90;;;;;;6239058;22;20731;-60
2022/11/13 15:44:59;;;;;;;11.07;8.95;;;9.70;99.90;;;;;;6148271;22;20492;-60
2022/11/13 15:47:33;;;;;;;10.70;8.20;;;9.60;99.90;;;;;;6136137;23;20857;-60
2022/11/13 15:49:59;;;;;;;10.13;8.40;;;9.60;99.90;;;;;;6136808;23;20028;-60
2022/11/13 15:52:28;;;;;;;9.13;7.50;;;9.40;99.90;;;;;;6136860;23;20025;-60
2022/11/13 15:54:54;;;;;;;9.88;7.53;;;9.40;99.90;;;;;;6136800;23;20018;-60
2022/11/13 15:57:25;;;;;;;10.27;8.63;;;9.30;99.90;;;;;;6137152;22;20064;-60
2022/11/13 15:59:51;;;;;;;13.23;9.65;;;9.10;99.90;;;;;;6134186;23;20407;-60
2022/11/13 16:02:17;;;;;;;14.02;10.10;;;9.10;99.90;;;;;;6237569;22;20033;-60
2022/11/13 16:04:45;;;;;;;13.65;9.55;;;9.00;99.90;;;;;;6135664;22;20466;-60
2022/11/13 16:07:18;;;;;;;14.60;9.65;;;8.90;99.90;;;;;;6136236;23;20034;-60
2022/11/13 16:12:11;;;;;;;12.65;9.27;;;8.80;99.90;;;;;;6184231;22;20024;-60
2022/11/13 16:14:37;;;;;;;11.73;8.90;;;8.70;99.90;;;;;;6165959;22;20036;-63
2022/11/13 16:17:10;;;;;;;11.40;8.85;;;8.60;99.90;;;;;;6137306;23;20048;-62
2022/11/13 16:19:37;;;;;;;8.57;7.15;;;8.50;99.90;;;;;;6138340;23;20040;-60
2022/11/13 16:22:03;;;;;;;11.10;8.00;;;8.40;99.90;;;;;;6151225;22;20054;-61
2022/11/13 16:24:28;;;;;;;11.60;8.55;;;8.40;99.90;;;;;;6137799;23;20052;-61
2022/11/13 16:26:57;;;;;;;9.50;7.85;;;8.20;99.90;;;;;;6240813;22;20036;-62
2022/11/13 16:29:23;;;;;;;10.85;7.45;;;8.20;99.90;;;;;;6138032;22;20057;-63
2022/11/13 16:31:49;;;;;;;10.15;7.65;;;8.20;99.90;;;;;;6138705;23;20536;-62
2022/11/13 16:34:15;;;;;;;10.80;7.85;;;8.10;99.90;;;;;;6139235;22;20025;-66
2022/11/13 16:36:44;;;;;;;13.43;8.75;;;8.10;99.90;;;;;;6241377;22;20021;-65
2022/11/13 16:39:14;;;;;;;13.65;9.10;;;8.00;99.90;;;;;;6138936;23;20091;-60
2022/11/13 16:41:40;;;;;;;10.27;8.02;;;8.00;99.90;;;;;;6138892;23;20439;-68
2022/11/13 16:44:06;;;;;;;12.50;8.85;;;7.90;99.90;;;;;;6138372;22;20028;-64
2022/11/13 16:46:33;;;;;;;11.18;8.50;;;7.80;99.90;;;;;;6137230;22;20038;-62
2022/11/13 16:48:59;;;;;;;11.77;9.57;;;7.80;99.90;;;;;;6140459;23;20442;-63
2022/11/13 16:51:25;;;;;;;15.90;9.82;;;7.90;99.90;;;;;;6139670;23;20021;-63
2022/11/13 16:53:51;;;;;;;15.98;10.05;;;7.90;99.90;;;;;;6139992;22;20478;-65
2022/11/13 16:56:23;;;;;;;13.00;9.38;;;7.90;99.90;;;;;;6139572;22;20359;-64
2022/11/13 16:58:50;;;;;;;13.05;9.82;;;8.00;99.90;;;;;;6137339;23;20105;-64
2022/11/13 17:01:18;;;;;;;13.90;8.27;;;7.90;99.90;;;;;;6138135;23;20049;-61
2022/11/13 17:03:45;;;;;;;11.07;8.63;;;7.90;99.90;;;;;;6138608;23;20022;-63
2022/11/13 17:06:31;;;;;;;11.05;9.07;;;8.00;99.90;;;;;;6140356;23;20447;-62
2022/11/13 17:09:00;;;;;;;14.25;9.63;;;8.00;99.90;;;;;;6242305;22;20388;-66
2022/11/13 17:11:29;;;;;;;11.02;8.65;;;8.00;99.90;;;;;;6140611;23;20055;-66
2022/11/13 17:13:57;;;;;;;11.13;8.10;;;8.00;99.90;;;;;;6139636;23;20029;-63
2022/11/13 17:16:24;;;;;;;13.88;8.43;;;8.00;99.90;;;;;;6140834;23;20037;-63
2022/11/13 17:18:52;;;;;;;13.43;8.82;;;7.90;99.90;;;;;;6140188;23;20108;-65
2022/11/13 17:21:22;;;;;;;13.88;9.10;;;7.90;99.90;;;;;;6243070;22;20463;-61
2022/11/13 17:23:56;;;;;;;12.73;9.05;;;7.80;99.90;;;;;;6139836;23;20053;-62
2022/11/13 17:26:23;;;;;;;12.52;8.70;;;7.80;99.90;;;;;;6140242;23;20101;-66
2022/11/13 17:28:49;;;;;;;11.95;8.95;;;7.70;99.90;;;;;;6241543;22;20026;-65
2022/11/13 17:31:15;;;;;;;12.55;8.45;;;8.00;99.90;;;;;;6241383;22;20091;-63
2022/11/13 17:33:44;;;;;;;11.20;8.48;;;7.70;99.90;;;;;;6140055;22;20374;-65
2022/11/13 17:36:10;;;;;;;10.82;8.13;;;7.60;99.90;;;;;;6138489;22;20459;-60
2022/11/13 17:38:37;;;;;;;11.15;8.07;;;7.60;99.90;;;;;;6139915;23;20045;-65
2022/11/13 17:41:11;;;;;;;14.75;8.43;;;7.50;99.90;;;;;;6138114;22;20502;-60
2022/11/13 17:43:38;;;;;;;9.88;8.27;;;7.50;99.90;;;;;;6138767;23;20083;-62
2022/11/13 17:46:05;;;;;;;14.48;8.73;;;7.50;99.90;;;;;;6139077;22;20333;-62
2022/11/13 17:48:32;;;;;;;10.75;8.05;;;7.50;99.90;;;;;;6139795;23;20048;-60
2022/11/13 17:51:00;;;;;;;13.27;8.77;;;7.50;99.90;;;;;;6139982;23;20100;-64
2022/11/13 17:53:26;;;;;;;11.15;7.85;;;7.40;99.90;;;;;;6139438;23;20125;-60
2022/11/13 17:56:00;;;;;;;12.32;8.57;;;6.80;99.90;;;;;;6140059;22;20120;-61
2022/11/13 17:58:26;;;;;;;;;;;7.40;99.90;;;;;;6243035;22;20049;-61
2022/11/13 18:00:52;;;;;;;13.88;8.02;;;7.30;99.90;;;;;;6140366;22;19946;-61
2022/11/13 18:03:18;;;;;;;12.27;7.72;;;7.20;99.90;;;;;;6139887;23;20029;-61
2022/11/13 18:05:45;;;;;;;9.98;8.05;;;7.20;99.90;;;;;;6140136;22;20460;-59
2022/11/13 18:08:11;;;;;;;10.15;7.85;;;7.10;99.90;;;;;;6139079;23;20025;-61
2022/11/13 18:10:38;;;;;;;10.32;7.93;;;7.00;99.90;;;;;;6138977;22;20327;-61
2022/11/13 18:13:04;;;;;;;10.27;8.00;;;7.00;99.90;;;;;;6239603;22;20364;-61
2022/11/13 18:15:33;;;;;;;14.70;9.30;;;7.10;99.90;;;;;;6137933;23;20025;-60
2022/11/13 18:17:58;;;;;;;11.25;8.15;;;6.90;99.90;;;;;;6091097;22;1118891;-60
2022/11/13 18:20:24;;;;;;;11.07;7.75;;;6.80;99.90;;;;;;6139518;23;20451;-65
2022/11/13 18:22:50;;;;;;;11.27;8.02;;;6.80;99.90;;;;;;6139342;23;20040;-62
2022/11/13 18:25:18;;;;;;;13.18;8.88;;;6.70;99.90;;;;;;6139467;23;20026;-62
2022/11/13 18:27:44;;;;;;;13.15;8.65;;;6.60;99.90;;;;;;6140430;23;20022;-60
2022/11/13 18:30:10;;;;;;;12.52;8.38;;;6.70;99.90;;;;;;6139007;23;20079;-59
2022/11/13 18:32:36;;;;;;;9.90;7.80;;;6.70;99.90;;;;;;6133111;23;20034;-60
2022/11/13 18:35:02;;;;;;;16.17;9.10;;;6.60;99.90;;;;;;6135602;23;20028;-60
2022/11/13 18:37:29;;;;;;;14.35;10.35;;;6.60;99.90;;;;;;6137334;22;20108;-60
2022/11/13 18:39:55;;;;;;;18.17;11.07;;;6.60;99.90;;;;;;6137942;22;20018;-60
2022/11/13 18:42:20;;;;;;;14.13;9.43;;;6.50;99.90;;;;;;6136728;23;20086;-59
2022/11/13 18:44:46;;;;;;;12.60;9.40;;;6.60;99.90;;;;;;6137819;22;20022;-59
2022/11/13 18:47:12;;;;;;;13.07;9.77;;;6.50;99.90;;;;;;6137595;22;20565;-59
2022/11/13 18:49:37;;;;;;;14.48;10.07;;;6.50;99.90;;;;;;6137269;22;20034;-59
2022/11/13 18:52:03;;;;;;;15.55;10.50;;;6.50;99.90;;;;;;6137092;22;20029;-60
2022/11/13 18:54:29;;;;;;;18.95;11.38;;;6.50;99.90;;;;;;6138171;22;20065;-59
2022/11/13 18:56:54;;;;;;;15.20;11.10;;;6.50;99.90;;;;;;6137089;22;20252;-59
2022/11/13 18:59:20;;;;;;;15.82;10.57;;;6.50;99.90;;;;;;6136908;23;20025;-59
2022/11/13 19:01:46;;;;;;;14.77;10.68;;;6.50;99.90;;;;;;6135554;23;20102;-59
2022/11/13 19:04:13;;;;;;;13.43;9.85;;;6.50;99.90;;;;;;6260874;22;20033;-60
2022/11/13 19:06:39;;;;;;;16.27;10.57;;;6.40;99.90;;;;;;6160084;22;20351;-59
2022/11/13 19:09:09;;;;;;;17.10;10.68;;;6.50;99.90;;;;;;6137042;22;20036;-59
2022/11/13 19:11:35;;;;;;;14.40;10.23;;;6.40;99.90;;;;;;6134126;22;20552;-60
2022/11/13 19:14:00;;;;;;;17.35;11.10;;;6.30;99.90;;;;;;6137285;22;20018;-59
2022/11/13 19:16:31;;;;;;;16.27;11.27;;;6.30;99.90;;;;;;6136733;22;20083;-60
2022/11/13 19:19:18;;;;;;;14.07;9.95;;;6.20;99.90;;;;;;6137486;22;20103;-60
2022/11/13 19:21:45;;;;;;;13.80;10.25;;;6.10;99.90;;;;;;6138481;22;20029;-59
2022/11/13 19:24:13;;;;;;;14.10;10.20;;;6.00;99.90;;;;;;6188662;22;20022;-60
2022/11/13 19:26:39;;;;;;;14.32;9.35;;;6.00;99.90;;;;;;6138499;22;20026;-59
2022/11/13 19:29:05;;;;;;;15.85;10.90;;;6.30;99.90;;;;;;6137794;23;20017;-59
2022/11/13 19:31:31;;;;;;;15.55;10.80;;;5.90;99.90;;;;;;6240823;22;20029;-60
2022/11/13 19:33:59;;;;;;;15.27;10.00;;;5.90;99.90;;;;;;6137106;22;20029;-59
2022/11/13 19:36:26;;;;;;;15.75;10.70;;;5.90;99.90;;;;;;6138068;22;20025;-59
2022/11/13 19:38:52;;;;;;;17.13;11.02;;;5.80;99.90;;;;;;6138198;23;20343;-59
2022/11/13 19:41:19;;;;;;;17.90;10.32;;;5.70;99.90;;;;;;6138738;22;20565;-59
2022/11/13 19:43:44;;;;;;;16.98;11.02;;;5.70;99.90;;;;;;6136266;22;20336;-60
2022/11/13 19:46:13;;;;;;;15.60;10.40;;;5.70;99.90;;;;;;6239702;22;20033;-60
2022/11/13 19:48:44;;;;;;;16.48;10.57;;;5.60;99.90;;;;;;6137664;22;20448;-60
2022/11/13 19:51:12;;;;;;;18.10;12.75;;;5.60;99.90;;;;;;6135424;23;20037;-60
2022/11/13 19:53:44;;;;;;;17.90;12.25;;;5.60;99.90;;;;;;6137411;22;20026;-59
2022/11/13 19:56:06;;;;;;;19.90;14.68;;;5.70;99.90;;;;;;6137092;22;20471;-59
2022/11/13 19:58:32;;;;;;;20.55;14.23;;;5.70;99.90;;;;;;6137293;22;20029;-60
2022/11/13 20:00:57;;;;;;;22.58;15.18;;;5.70;99.90;;;;;;6137435;23;20030;-59
2022/11/13 20:03:26;;;;;;;21.90;15.00;;;5.80;99.90;;;;;;6213569;22;20033;-60
2022/11/13 20:05:53;;;;;;;21.80;14.90;;;5.80;99.90;;;;;;6136602;22;20049;-59
2022/11/13 20:08:19;;;;;;;27.73;17.67;;;5.80;99.90;;;;;;6137207;23;20044;-59
2022/11/13 20:10:45;;;;;;;24.17;16.00;;;5.90;99.90;;;;;;6137194;22;20325;-59
2022/11/13 20:13:11;;;;;;;25.30;16.23;;;5.90;99.90;;;;;;6136922;23;20024;-60
2022/11/13 20:15:36;;;;;;;27.45;17.73;;;5.90;99.90;;;;;;6240838;22;20450;-60
2022/11/13 20:18:02;;;;;;;28.38;18.17;;;5.90;99.90;;;;;;6134151;22;20033;-60
2022/11/13 20:20:28;;;;;;;30.05;19.95;;;5.90;99.90;;;;;;6137742;22;20108;-60
2022/11/13 20:22:54;;;;;;;28.08;18.95;;;5.90;99.90;;;;;;6138908;22;20030;-59
2022/11/13 20:25:19;;;;;;;34.33;21.45;;;5.90;99.90;;;;;;6138370;23;20029;-60
2022/11/13 20:27:45;;;;;;;36.45;22.60;;;5.90;99.90;;;;;;6241213;22;20491;-59
2022/11/13 20:30:12;;;;;;;35.42;22.80;;;5.80;99.90;;;;;;6139508;22;20348;-59
2022/11/13 20:32:38;;;;;;;31.98;22.55;;;5.90;99.90;;;;;;6239817;22;20029;-60
2022/11/13 20:35:05;;;;;;;37.33;21.08;;;5.90;99.90;;;;;;6240544;22;22267;-59
2022/11/13 20:37:31;;;;;;;31.10;21.13;;;5.80;99.90;;;;;;6239744;22;20064;-59
2022/11/13 20:39:57;;;;;;;28.80;20.45;;;5.80;99.90;;;;;;6139109;22;20140;-60
2022/11/13 20:42:23;;;;;;;31.42;21.30;;;5.90;99.90;;;;;;6140325;22;20120;-60
2022/11/13 20:44:48;;;;;;;32.85;21.73;;;5.90;99.90;;;;;;6138592;22;20029;-59
2022/11/13 20:47:14;;;;;;;29.75;21.15;;;5.90;99.90;;;;;;6138205;22;20025;-60
2022/11/13 20:49:40;;;;;;;34.50;22.65;;;5.90;99.90;;;;;;6138308;22;20086;-59
2022/11/13 20:52:07;;;;;;;31.88;22.27;;;5.80;99.90;;;;;;6139754;22;20052;-60
2022/11/13 20:54:33;;;;;;;35.80;23.30;;;5.80;99.90;;;;;;6139491;22;20037;-61
2022/11/13 20:56:58;;;;;;;36.80;23.33;;;5.80;99.90;;;;;;6139879;22;20028;-59
2022/11/13 20:59:24;;;;;;;37.63;24.05;;;5.80;99.90;;;;;;6243561;22;20025;-60
2022/11/13 21:01:50;;;;;;;33.40;22.52;;;5.80;99.90;;;;;;6258425;22;20146;-62
2022/11/13 21:04:15;;;;;;;39.53;23.63;;;5.90;99.90;;;;;;6138638;22;20025;-60
2022/11/13 21:06:45;;;;;;;40.55;22.45;;;5.80;99.90;;;;;;6140369;22;20443;-60
2022/11/13 21:09:10;;;;;;;39.78;22.58;;;5.70;99.90;;;;;;6128886;22;20026;-63
2022/11/13 21:11:36;;;;;;;43.15;23.33;;;5.70;99.90;;;;;;6243301;22;20025;-62
2022/11/13 21:14:02;;;;;;;36.63;20.60;;;5.80;99.90;;;;;;6138239;22;20025;-64
2022/11/13 21:16:28;;;;;;;41.03;22.70;;;5.70;99.90;;;;;;6140424;22;20087;-59
2022/11/13 21:18:58;;;;;;;41.60;23.42;;;5.80;99.90;;;;;;6240735;22;20025;-59
2022/11/13 21:21:27;;;;;;;38.92;22.30;;;5.80;99.90;;;;;;6138758;22;20540;-59
2022/11/13 21:23:55;;;;;;;42.35;21.77;;;5.80;99.90;;;;;;6138714;22;20036;-59
2022/11/13 21:26:21;;;;;;;42.20;22.75;;;5.80;99.90;;;;;;6139692;22;20525;-59
2022/11/13 21:28:46;;;;;;;39.67;21.73;;;5.80;99.90;;;;;;6140610;22;20056;-59
2022/11/13 21:31:17;;;;;;;40.17;21.92;;;5.80;99.90;;;;;;6139876;23;20058;-59
2022/11/13 21:33:47;;;;;;;37.15;21.90;;;5.80;99.90;;;;;;6140632;22;20045;-59
2022/11/13 21:36:16;;;;;;;39.83;21.38;;;6.10;99.90;;;;;;6148345;22;20025;-59
2022/11/13 21:38:47;;;;;;;46.50;21.60;;;5.80;99.90;;;;;;6138571;22;20096;-59
2022/11/13 21:41:25;;;;;;;45.22;23.13;;;5.80;99.90;;;;;;6188906;22;20052;-59
2022/11/13 21:43:58;;;;;;;39.13;21.67;;;5.80;99.90;;;;;;6137333;22;20033;-60
2022/11/13 21:46:33;;;;;;;45.65;22.70;;;5.80;99.90;;;;;;6138548;22;20104;-60
2022/11/13 21:49:19;;;;;;;39.92;19.65;;;5.80;99.90;;;;;;6138520;22;20723;-59
2022/11/13 21:51:44;;;;;;;41.03;22.13;;;5.80;99.90;;;;;;6140199;22;20506;-59
2022/11/13 21:54:10;;;;;;;41.38;20.80;;;5.90;99.90;;;;;;6139624;22;20094;-59
2022/11/13 21:56:37;;;;;;;41.03;21.80;;;5.90;99.90;;;;;;6139575;22;20026;-59
2022/11/13 21:59:04;;;;;;;42.03;21.33;;;5.90;99.90;;;;;;6139396;23;20030;-59
2022/11/13 22:01:30;;;;;;;41.03;20.40;;;6.00;99.90;;;;;;6140869;22;20028;-59
2022/11/13 22:03:55;;;;;;;42.97;20.83;;;6.10;99.90;;;;;;6139668;22;20348;-59
2022/11/13 22:06:26;;;;;;;37.83;19.08;;;6.00;99.90;;;;;;6139851;22;20037;-59
2022/11/13 22:08:58;;;;;;;31.90;17.83;;;6.10;99.90;;;;;;6138681;22;20268;-59
2022/11/13 22:11:27;;;;;;;45.67;21.15;;;6.10;99.90;;;;;;6140260;22;20033;-59
2022/11/13 22:13:53;;;;;;;39.22;19.73;;;6.10;99.90;;;;;;6139656;22;20807;-59
2022/11/13 22:16:21;;;;;;;33.03;17.77;;;6.10;99.90;;;;;;6242662;22;20338;-59
2022/11/13 22:18:50;;;;;;;33.83;17.92;;;6.10;99.90;;;;;;6140183;22;20451;-59
2022/11/13 22:21:16;;;;;;;33.65;18.67;;;6.20;99.90;;;;;;6140200;22;20032;-59
2022/11/13 22:23:45;;;;;;;37.60;18.60;;;6.20;99.90;;;;;;6138543;22;20148;-60
2022/11/13 22:26:13;;;;;;;39.78;19.63;;;6.20;99.90;;;;;;6151663;22;20078;-59
2022/11/13 22:31:10;;;;;;;31.60;16.88;;;6.20;99.90;;;;;;6142655;22;20355;-59
2022/11/13 22:33:36;;;;;;;29.23;15.93;;;6.20;99.90;;;;;;6140344;22;20103;-59
2022/11/13 22:36:10;;;;;;;33.17;18.33;;;6.20;99.90;;;;;;6105465;22;1124257;-60
2022/11/13 22:38:36;;;;;;;35.17;17.45;;;6.30;99.90;;;;;;6139979;22;20212;-60
2022/11/13 22:41:32;;;;;;;35.72;18.13;;;6.80;99.90;;;;;;6139253;22;20108;-59
2022/11/13 22:44:03;;;;;;;27.08;15.88;;;6.30;99.90;;;;;;6138501;22;20036;-60
2022/11/13 22:46:31;;;;;;;33.63;17.40;;;6.50;99.90;;;;;;6139500;23;20098;-59
2022/11/13 22:49:00;;;;;;;32.40;17.77;;;5.50;99.90;;;;;;6239820;22;20033;-60
2022/11/13 22:51:29;;;;;;;36.83;18.02;;;6.30;99.90;;;;;;6138961;22;20163;-60
2022/11/13 22:54:00;;;;;;;30.95;16.33;;;6.30;99.90;;;;;;6139263;22;20033;-59
2022/11/13 22:56:28;;;;;;;27.95;15.77;;;6.90;99.90;;;;;;6139461;22;20494;-60
2022/11/13 22:58:56;;;;;;;29.55;15.32;;;6.40;99.90;;;;;;6138751;22;20044;-59
2022/11/13 23:01:24;;;;;;;31.85;16.90;;;6.40;99.90;;;;;;6139681;22;20057;-60
2022/11/13 23:03:50;;;;;;;33.40;17.52;;;6.40;99.90;;;;;;6139726;22;20040;-59
2022/11/13 23:06:22;;;;;;;35.08;18.35;;;6.40;99.90;;;;;;6140025;23;20438;-60
2022/11/13 23:08:48;;;;;;;35.75;19.60;;;6.90;99.90;;;;;;6140270;22;20510;-59
2022/11/13 23:11:20;;;;;;;31.42;18.85;;;6.40;99.90;;;;;;6139715;22;20056;-59
2022/11/13 23:13:51;;;;;;;30.40;17.00;;;6.50;99.90;;;;;;6139731;22;20082;-60
2022/11/13 23:16:17;;;;;;;31.23;18.80;;;6.50;99.90;;;;;;6141105;22;20090;-60
2022/11/13 23:18:45;;;;;;;38.28;20.60;;;6.50;99.90;;;;;;6141086;22;20018;-59
2022/11/13 23:21:12;;;;;;;36.80;20.00;;;6.50;99.90;;;;;;6260751;22;20034;-59
2022/11/13 23:23:38;;;;;;;34.78;20.08;;;6.50;99.90;;;;;;6167699;22;20527;-60
2022/11/13 23:26:05;;;;;;;45.22;22.85;;;6.50;99.90;;;;;;6140754;22;20094;-60
2022/11/13 23:28:31;;;;;;;39.40;22.58;;;6.50;99.90;;;;;;6140816;22;20056;-60
2022/11/13 23:30:57;;;;;;;37.92;22.55;;;6.60;99.90;;;;;;6140351;22;20045;-60
2022/11/13 23:33:23;;;;;;;37.97;21.83;;;6.50;99.90;;;;;;6140758;23;20033;-60
2022/11/13 23:35:50;;;;;;;39.13;23.92;;;6.60;99.90;;;;;;6243021;22;20021;-59
2022/11/13 23:38:15;;;;;;;41.17;22.25;;;6.60;99.90;;;;;;6140670;22;20032;-59
2022/11/13 23:40:45;;;;;;;39.28;23.92;;;6.60;99.90;;;;;;6140368;22;20076;-60
2022/11/13 23:43:11;;;;;;;41.45;22.85;;;6.60;99.90;;;;;;6152201;22;20490;-60
2022/11/13 23:45:37;;;;;;;43.63;23.05;;;6.60;99.90;;;;;;6140624;22;20057;-60
2022/11/13 23:48:03;;;;;;;40.33;22.50;;;6.60;99.90;;;;;;6242537;22;20026;-60
2022/11/13 23:50:28;;;;;;;34.97;21.42;;;6.60;99.90;;;;;;6140365;22;20452;-60
2022/11/13 23:52:54;;;;;;;35.88;20.75;;;6.60;99.90;;;;;;6139986;22;20452;-60
2022/11/13 23:55:21;;;;;;;38.25;21.75;;;6.70;99.90;;;;;;6140319;23;20049;-60
2022/11/13 23:57:47;;;;;;;39.38;21.48;;;6.70;99.90;;;;;;6139368;22;20028;-59
